createdAt,value
2023-02-25T00:02:59.239Z,100964.41
2023-02-25T00:07:55.545Z,100963.63
2023-02-25T00:12:46.663Z,100961.31
2023-02-25T00:17:41.579Z,100958.69
2023-02-25T00:22:32.314Z,100940.69
2023-02-25T00:27:36.075Z,100950.97
2023-02-25T00:32:39.155Z,100943.16
2023-02-25T00:37:30.867Z,100933.84
2023-02-25T00:42:21.429Z,100943.22
2023-02-25T00:47:15.657Z,100939.63
2023-02-25T00:52:15.409Z,100938.78
2023-02-25T01:02:19.007Z,100946.44
2023-02-25T01:07:16.008Z,100943.00
2023-02-25T01:12:10.163Z,100952.38
2023-02-25T01:17:03.514Z,100948.16
2023-02-25T01:22:04.488Z,100964.31
2023-02-25T01:27:01.414Z,100960.81
2023-02-25T01:31:56.400Z,100961.72
2023-02-25T01:36:49.333Z,100967.75
2023-02-25T01:41:50.256Z,100956.72
2023-02-25T01:46:42.021Z,100962.75
2023-02-25T01:51:42.421Z,100967.00
2023-02-25T01:56:33.554Z,100950.72
2023-02-25T02:01:33.500Z,100958.63
2023-02-25T02:06:28.757Z,100956.97
2023-02-25T02:11:21.282Z,100960.34
2023-02-25T02:16:21.139Z,100958.69
2023-02-25T02:21:24.413Z,100958.66
2023-02-25T02:26:31.164Z,100956.97
2023-02-25T02:31:36.569Z,100953.38
2023-02-25T02:36:35.410Z,100968.06
2023-02-25T02:41:31.906Z,100977.19
2023-02-25T02:46:26.468Z,100968.06
2023-02-25T02:51:23.811Z,100971.50
2023-02-25T02:56:16.955Z,100967.28
2023-02-25T03:01:10.367Z,100974.72
2023-02-25T03:06:01.347Z,100971.44
2023-02-25T03:10:57.225Z,100976.50
2023-02-25T03:15:49.817Z,100967.94
2023-02-25T03:20:48.147Z,100977.38
2023-02-25T03:25:47.875Z,101009.88
2023-02-25T03:30:47.183Z,101009.19
2023-02-25T03:35:41.284Z,101005.56
2023-02-25T03:40:36.154Z,100995.19
2023-02-25T03:45:27.519Z,100989.19
2023-02-25T03:50:23.999Z,100989.16
2023-02-25T03:55:20.039Z,100989.00
2023-02-25T04:00:16.932Z,100992.31
2023-02-25T04:05:13.796Z,100992.34
2023-02-25T04:10:20.735Z,100986.31
2023-02-25T04:15:20.550Z,100986.31
2023-02-25T04:20:15.658Z,101000.94
2023-02-25T04:25:12.374Z,100996.53
2023-02-25T04:30:02.834Z,101007.81
2023-02-25T04:34:58.350Z,101001.91
2023-02-25T04:39:53.063Z,101009.59
2023-02-25T04:44:45.718Z,101016.47
2023-02-25T04:49:45.535Z,101016.56
2023-02-25T04:54:42.482Z,101032.97
2023-02-25T04:59:33.528Z,101032.88
2023-02-25T05:04:27.727Z,101037.28
2023-02-25T05:09:21.601Z,101027.53
2023-02-25T05:14:17.455Z,101035.53
2023-02-25T05:19:11.277Z,101035.53
2023-02-25T05:24:04.525Z,101036.41
2023-02-25T05:28:56.718Z,101026.84
2023-02-25T05:34:01.085Z,101032.97
2023-02-25T05:39:01.103Z,101032.09
2023-02-25T05:43:57.294Z,101035.38
2023-02-25T05:48:55.027Z,101043.09
2023-02-25T05:53:49.297Z,101042.06
2023-02-25T05:58:45.248Z,101039.53
2023-02-25T06:03:37.240Z,101039.56
2023-02-25T06:08:38.621Z,101052.34
2023-02-25T06:13:33.311Z,101043.69
2023-02-25T06:18:27.769Z,101039.44
2023-02-25T06:23:22.759Z,101045.38
2023-02-25T06:28:16.074Z,101038.44
2023-02-25T06:33:05.651Z,101058.94
2023-02-25T06:37:57.918Z,101064.97
2023-02-25T06:42:50.529Z,101066.88
2023-02-25T06:47:47.503Z,101069.47
2023-02-25T06:52:47.866Z,101066.19
2023-02-25T06:57:38.381Z,101074.88
2023-02-25T07:02:30.484Z,101084.97
2023-02-25T07:07:29.848Z,101084.00
2023-02-25T07:12:22.239Z,101087.59
2023-02-25T07:17:18.386Z,101090.22
2023-02-25T07:22:09.959Z,101100.56
2023-02-25T07:27:04.449Z,101116.94
2023-02-25T07:31:56.671Z,101120.25
2023-02-25T07:36:48.247Z,101121.25
2023-02-25T07:41:41.507Z,101129.13
2023-02-25T07:46:41.645Z,101142.97
2023-02-25T07:51:34.316Z,101137.31
2023-02-25T07:56:27.842Z,101137.31
2023-02-25T08:01:27.608Z,101139.03
2023-02-25T08:06:22.115Z,101139.78
2023-02-25T08:11:13.178Z,101144.03
2023-02-25T08:16:03.390Z,101146.69
2023-02-25T08:20:56.827Z,101144.22
2023-02-25T08:26:00.772Z,101154.78
2023-02-25T08:30:51.781Z,101149.81
2023-02-25T08:35:53.179Z,101161.22
2023-02-25T08:40:46.642Z,101154.38
2023-02-25T08:45:42.644Z,101163.22
2023-02-25T08:50:42.302Z,101152.19
2023-02-25T08:55:38.822Z,101159.06
2023-02-25T09:00:31.324Z,101157.31
2023-02-25T09:05:35.571Z,101161.88
2023-02-25T09:10:48.096Z,101162.81
2023-02-25T09:15:43.536Z,101163.03
2023-02-25T09:20:35.987Z,101170.81
2023-02-25T09:25:32.216Z,101189.19
2023-02-25T09:30:26.231Z,101188.38
2023-02-25T09:35:25.505Z,101203.88
2023-02-25T09:40:28.127Z,101254.66
2023-02-25T09:45:23.034Z,101231.25
2023-02-25T09:50:23.837Z,101243.75
2023-02-25T09:55:28.407Z,101245.03
2023-02-25T10:00:25.351Z,101243.97
2023-02-25T10:05:26.508Z,101242.34
2023-02-25T10:10:30.776Z,101248.47
2023-02-25T10:15:37.095Z,101253.66
2023-02-25T10:20:39.511Z,101258.03
2023-02-25T10:25:35.015Z,101263.66
2023-02-25T10:30:34.037Z,101263.50
2023-02-25T10:35:31.141Z,101269.88
2023-02-25T10:40:25.378Z,101268.19
2023-02-25T10:45:23.590Z,101267.34
2023-02-25T10:50:44.497Z,101268.88
2023-02-25T10:55:59.018Z,101271.84
2023-02-25T11:01:02.662Z,101300.13
2023-02-25T11:06:12.046Z,101287.31
2023-02-25T11:11:27.082Z,101290.91
2023-02-25T11:16:21.351Z,101288.38
2023-02-25T11:21:16.498Z,101294.34
2023-02-25T11:26:16.443Z,101297.81
2023-02-25T11:31:25.775Z,101312.75
2023-02-25T11:36:27.633Z,101316.25
2023-02-25T11:41:27.637Z,101314.41
2023-02-25T11:46:34.853Z,101309.91
2023-02-25T11:51:41.982Z,101312.56
2023-02-25T11:56:51.904Z,101306.72
2023-02-25T12:02:01.885Z,101309.31
2023-02-25T12:07:29.480Z,101277.88
2023-02-25T12:12:38.387Z,101339.13
2023-02-25T12:17:42.622Z,101337.81
2023-02-25T12:22:46.968Z,101340.97
2023-02-25T12:27:51.602Z,101334.81
2023-02-25T12:32:55.445Z,101342.41
2023-02-25T12:37:59.368Z,101333.66
2023-02-25T12:42:58.450Z,101333.94
2023-02-25T12:47:57.899Z,101331.72
2023-02-25T12:52:55.848Z,101334.47
2023-02-25T12:57:58.680Z,101346.91
2023-02-25T13:03:08.987Z,101352.19
2023-02-25T13:08:28.302Z,101349.56
2023-02-25T13:13:35.106Z,101344.34
2023-02-25T13:18:31.614Z,101349.56
2023-02-25T13:23:34.031Z,101347.06
2023-02-25T13:28:33.030Z,101348.06
2023-02-25T13:33:27.146Z,101354.78
2023-02-25T13:38:31.016Z,101355.44
2023-02-25T13:43:38.516Z,101359.06
2023-02-25T13:48:41.895Z,101350.41
2023-02-25T13:53:51.106Z,101354.41
2023-02-25T13:58:54.664Z,101368.38
2023-02-25T14:03:59.091Z,101386.59
2023-02-25T14:09:07.148Z,101391.47
2023-02-25T14:14:09.599Z,101401.03
2023-02-25T14:19:08.197Z,101402.75
2023-02-25T14:24:06.949Z,101403.53
2023-02-25T14:29:06.757Z,101409.59
2023-02-25T14:34:14.023Z,101415.16
2023-02-25T14:39:20.599Z,101408.72
2023-02-25T14:44:15.358Z,101431.34
2023-02-25T14:49:10.183Z,101426.19
2023-02-25T14:54:08.826Z,101439.97
2023-02-25T14:59:28.003Z,101447.69
2023-02-25T15:04:29.109Z,101451.19
2023-02-25T15:09:27.946Z,101467.31
2023-02-25T15:14:35.315Z,101460.78
2023-02-25T15:19:43.297Z,101470.97
2023-02-25T15:24:40.384Z,101477.06
2023-02-25T15:29:46.825Z,101482.13
2023-02-25T15:34:40.121Z,101492.16
2023-02-25T15:39:44.706Z,101490.59
2023-02-25T15:44:41.424Z,101504.72
2023-02-25T15:49:33.387Z,101512.97
2023-02-25T15:54:37.943Z,101508.53
2023-02-25T15:59:45.203Z,101512.88
2023-02-25T16:04:58.669Z,101524.78
2023-02-25T16:09:53.878Z,101540.50
2023-02-25T16:14:44.209Z,101529.59
2023-02-25T16:19:40.257Z,101533.75
2023-02-25T16:24:32.799Z,101547.38
2023-02-25T16:29:40.080Z,101561.88
2023-02-25T16:34:36.432Z,101537.16
2023-02-25T16:39:31.548Z,101560.41
2023-02-25T16:44:29.637Z,101580.19
2023-02-25T16:49:36.984Z,101590.22
2023-02-25T16:54:34.661Z,101606.31
2023-02-25T16:59:34.109Z,101610.41
2023-02-25T17:04:39.795Z,101609.19
2023-02-25T17:09:33.104Z,101622.81
2023-02-25T17:14:46.678Z,101620.84
2023-02-25T17:19:45.173Z,101605.03
2023-02-25T17:24:36.934Z,101625.63
2023-02-25T17:29:41.525Z,101632.16
2023-02-25T17:34:35.422Z,101632.72
2023-02-25T17:39:34.814Z,101648.06
2023-02-25T17:44:49.267Z,101654.59
2023-02-25T17:49:40.774Z,101638.72
2023-02-25T17:54:37.201Z,101652.47
2023-02-25T17:59:48.727Z,101664.44
2023-02-25T18:04:54.007Z,101675.31
2023-02-25T18:09:50.329Z,101689.59
2023-02-25T18:14:48.270Z,101700.59
2023-02-25T18:19:41.660Z,101703.91
2023-02-25T18:24:38.296Z,101688.81
2023-02-25T18:29:35.035Z,101711.00
2023-02-25T18:34:37.022Z,101723.03
2023-02-25T18:39:31.706Z,101739.03
2023-02-25T18:44:26.512Z,101740.59
2023-02-25T18:49:25.244Z,101745.44
2023-02-25T18:54:38.725Z,101748.50
2023-02-25T18:59:30.600Z,101751.81
2023-02-25T19:04:33.920Z,101759.63
2023-02-25T19:09:30.584Z,101763.59
2023-02-25T19:14:23.207Z,101765.19
2023-02-25T19:19:17.818Z,101767.41
2023-02-25T19:24:14.365Z,101773.16
2023-02-25T19:29:08.083Z,101773.06
2023-02-25T19:34:04.258Z,101781.44
2023-02-25T19:39:02.284Z,101766.41
2023-02-25T19:43:57.642Z,101786.19
2023-02-25T19:48:54.566Z,101780.84
2023-02-25T19:53:47.583Z,101786.66
2023-02-25T19:58:44.223Z,101800.16
2023-02-25T20:03:40.592Z,101784.25
2023-02-25T20:08:53.199Z,101743.22
2023-02-25T20:13:48.227Z,101728.63
2023-02-25T20:19:07.913Z,101794.00
2023-02-25T20:24:03.190Z,101813.31
2023-02-25T20:28:56.894Z,101814.84
2023-02-25T20:33:59.633Z,101829.56
2023-02-25T20:39:13.140Z,101833.28
2023-02-25T20:44:14.031Z,101832.38
2023-02-25T20:49:08.299Z,101838.22
2023-02-25T20:54:12.176Z,101837.22
2023-02-25T20:59:08.369Z,101836.59
2023-02-25T21:04:16.987Z,101845.78
2023-02-25T21:09:19.763Z,101850.53
2023-02-25T21:14:12.504Z,101865.94
2023-02-25T21:19:04.721Z,101870.53
2023-02-25T21:24:00.580Z,101877.16
2023-02-25T21:28:54.568Z,101877.81
2023-02-25T21:33:46.991Z,101887.47
2023-02-25T21:38:41.099Z,101882.91
2023-02-25T21:43:37.187Z,101880.03
2023-02-25T21:48:34.999Z,101896.53
2023-02-25T21:53:30.273Z,101883.84
2023-02-25T21:58:27.933Z,101904.81
2023-02-25T22:03:20.504Z,101892.31
2023-02-25T22:08:11.245Z,101889.34
2023-02-25T22:13:04.480Z,101921.50
2023-02-25T22:17:59.685Z,101931.44
2023-02-25T22:22:59.511Z,101931.44
2023-02-25T22:27:53.098Z,101935.69
2023-02-25T22:32:50.862Z,101916.22
2023-02-25T22:37:42.370Z,101933.97
2023-02-25T22:42:40.049Z,101924.16
2023-02-25T22:47:33.199Z,101930.06
2023-02-25T22:52:23.202Z,101923.91
2023-02-25T22:57:13.502Z,101929.03
2023-02-25T23:02:10.538Z,101935.03
2023-02-25T23:07:13.763Z,101924.66
2023-02-25T23:12:06.204Z,101933.72
2023-02-25T23:17:09.680Z,101922.03
2023-02-25T23:22:04.605Z,101942.16
2023-02-25T23:27:01.818Z,101937.78
2023-02-25T23:31:52.761Z,101940.19
2023-02-25T23:36:47.046Z,101938.50
2023-02-25T23:41:41.813Z,101928.06
2023-02-25T23:46:37.922Z,101929.47
2023-02-25T23:51:39.251Z,101936.69
2023-02-25T23:56:37.498Z,101951.16
